Time;durP1;ratioP1;P1;durP2;ratioP2;P2;SDS_P1;SDS_P2;PMS_P1;PMS_P2;Temp;Humidity;BMP_temperature;BMP_pressure;BME280_temperature;BME280_humidity;BME280_pressure;Samples;Min_cycle;Max_cycle;Signal;HPM_P1;HPM_P2
2022/11/19 00:01:22;;;;;;;28.75;14.32;;;;;;;;;;5015305;28;92542;-71
2022/11/19 00:03:48;;;;;;;23.75;13.63;;;;;;;;;;5012103;28;92524;-72
2022/11/19 00:06:19;;;;;;;25.35;14.52;;;;;;;;;;5013443;28;93253;-72
2022/11/19 00:08:45;;;;;;;28.23;14.73;;;;;;;;;;5015810;28;94030;-70
2022/11/19 00:11:13;;;;;;;33.70;14.77;;;;;;;;;;5014464;28;93405;-71
2022/11/19 00:13:40;;;;;;;28.63;14.20;;;;;;;;;;5011033;28;92748;-71
2022/11/19 00:16:08;;;;;;;24.92;13.93;;;;;;;;;;5013636;28;93537;-72
2022/11/19 00:18:34;;;;;;;26.88;14.10;;;;;;;;;;5011228;28;95053;-70
2022/11/19 00:21:02;;;;;;;21.90;13.10;;;;;;;;;;5012411;28;95842;-72
2022/11/19 00:23:28;;;;;;;26.02;14.07;;;;;;;;;;5016397;28;93317;-69
2022/11/19 00:25:54;;;;;;;25.20;14.02;;;;;;;;;;5013829;28;94212;-72
2022/11/19 00:28:20;;;;;;;22.17;13.18;;;;;;;;;;5013800;28;93477;-72
2022/11/19 00:30:47;;;;;;;21.95;13.75;;;;;;;;;;5013498;28;92488;-72
2022/11/19 00:33:14;;;;;;;26.17;13.93;;;;;;;;;;5013253;28;93189;-72
2022/11/19 00:35:40;;;;;;;22.48;13.63;;;;;;;;;;5012619;28;93133;-71
2022/11/19 00:38:06;;;;;;;22.23;12.90;;;;;;;;;;5012477;28;92520;-71
2022/11/19 00:40:33;;;;;;;21.67;13.27;;;;;;;;;;5011492;28;92841;-71
2022/11/19 00:45:44;;;;;;;23.90;13.40;;;;;;;;;;5015518;28;92443;-71
2022/11/19 00:48:10;;;;;;;25.98;12.60;;;;;;;;;;5013859;28;93449;-72
2022/11/19 00:50:36;;;;;;;30.83;13.68;;;;;;;;;;5011697;28;93047;-72
2022/11/19 00:53:03;;;;;;;21.77;12.65;;;;;;;;;;5011340;28;93117;-71
2022/11/19 00:55:29;;;;;;;22.85;12.95;;;;;;;;;;5013099;28;93782;-71
2022/11/19 00:57:55;;;;;;;25.65;13.90;;;;;;;;;;5014445;28;93011;-72
2022/11/19 01:00:22;;;;;;;23.40;13.65;;;;;;;;;;5012002;28;94746;-71
2022/11/19 01:02:48;;;;;;;19.83;12.70;;;;;;;;;;5010727;28;97218;-72
2022/11/19 01:05:14;;;;;;;19.63;12.43;;;;;;;;;;5011047;28;92546;-72
2022/11/19 01:07:41;;;;;;;23.00;13.43;;;;;;;;;;5013977;28;94910;-72
2022/11/19 01:10:07;;;;;;;21.60;13.13;;;;;;;;;;5010944;28;92969;-72
2022/11/19 01:13:33;;;;;;;24.77;13.43;;;;;;;;;;5012921;28;93209;-72
2022/11/19 01:15:20;;;;;;;23.95;14.75;;;;;;;;;;5011943;28;92748;-72
2022/11/19 01:17:46;;;;;;;26.08;13.88;;;;;;;;;;5012786;28;93108;-71
2022/11/19 01:20:12;;;;;;;21.63;13.73;;;;;;;;;;5012924;28;94329;-71
2022/11/19 01:22:39;;;;;;;21.80;13.98;;;;;;;;;;5011066;28;94275;-72
2022/11/19 01:25:05;;;;;;;20.05;13.93;;;;;;;;;;5010581;28;91629;-72
2022/11/19 01:27:32;;;;;;;26.40;15.20;;;;;;;;;;5007967;28;92667;-72
2022/11/19 01:29:58;;;;;;;20.20;14.43;;;;;;;;;;5013548;28;93231;-72
2022/11/19 01:32:24;;;;;;;28.77;15.30;;;;;;;;;;5010461;28;94837;-70
2022/11/19 01:34:52;;;;;;;22.35;14.50;;;;;;;;;;5011633;28;93390;-71
2022/11/19 01:37:18;;;;;;;26.85;14.05;;;;;;;;;;5011462;28;93081;-71
2022/11/19 01:39:44;;;;;;;25.80;14.65;;;;;;;;;;5013808;28;93201;-72
2022/11/19 01:42:49;;;;;;;23.27;14.00;;;;;;;;;;5013738;28;94046;-72
2022/11/19 01:45:33;;;;;;;22.38;14.18;;;;;;;;;;5015574;28;92378;-71
2022/11/19 01:48:15;;;;;;;26.05;15.02;;;;;;;;;;5016148;28;94411;-72
2022/11/19 01:51:08;;;;;;;20.45;13.60;;;;;;;;;;5014651;28;96470;-71
2022/11/19 01:53:35;;;;;;;21.55;13.10;;;;;;;;;;5017398;28;92433;-72
2022/11/19 01:56:03;;;;;;;22.65;13.48;;;;;;;;;;5020824;28;93786;-71
2022/11/19 01:58:30;;;;;;;24.55;14.65;;;;;;;;;;5017047;28;95059;-72
2022/11/19 02:00:56;;;;;;;20.45;13.77;;;;;;;;;;5017861;28;95626;-72
2022/11/19 02:03:23;;;;;;;25.05;14.32;;;;;;;;;;5022551;28;94617;-72
2022/11/19 02:05:50;;;;;;;24.92;16.17;;;;;;;;;;5013828;28;92616;-72
2022/11/19 02:08:54;;;;;;;22.88;15.80;;;;;;;;;;5020135;28;93549;-71
2022/11/19 02:11:39;;;;;;;24.88;15.48;;;;;;;;;;4996966;28;93596;-72
2022/11/19 02:14:08;;;;;;;21.52;15.27;;;;;;;;;;4994345;28;93105;-72
2022/11/19 02:16:47;;;;;;;22.50;15.55;;;;;;;;;;4975702;28;92897;-72
2022/11/19 02:19:13;;;;;;;24.58;15.80;;;;;;;;;;4993789;28;92549;-72
2022/11/19 02:21:56;;;;;;;23.85;17.10;;;;;;;;;;4992222;28;93498;-71
2022/11/19 02:24:45;;;;;;;23.73;16.48;;;;;;;;;;4990810;28;95749;-71
2022/11/19 02:27:26;;;;;;;20.45;14.43;;;;;;;;;;4991670;28;92558;-72
2022/11/19 02:30:09;;;;;;;26.15;16.38;;;;;;;;;;4992956;28;93169;-71
2022/11/19 02:32:40;;;;;;;24.77;15.80;;;;;;;;;;4993007;28;93800;-71
2022/11/19 02:35:20;;;;;;;27.42;17.65;;;;;;;;;;4994090;28;92517;-71
2022/11/19 02:37:50;;;;;;;26.63;17.65;;;;;;;;;;4995195;28;93121;-71
2022/11/19 02:40:22;;;;;;;26.98;16.83;;;;;;;;;;4991784;28;92541;-72
2022/11/19 02:42:53;;;;;;;25.95;16.85;;;;;;;;;;4990949;28;93987;-72
2022/11/19 02:45:19;;;;;;;;;;;;;;;;;;5014508;28;95569;-72
2022/11/19 02:47:47;;;;;;;27.10;17.73;;;;;;;;;;5014633;28;120617;-71
2022/11/19 02:50:22;;;;;;;28.40;18.00;;;;;;;;;;5024685;27;94777;-70
2022/11/19 02:52:48;;;;;;;26.45;17.73;;;;;;;;;;5006971;28;94344;-71
2022/11/19 02:55:16;;;;;;;25.85;17.92;;;;;;;;;;5013132;28;92441;-71
2022/11/19 02:57:44;;;;;;;27.45;18.35;;;;;;;;;;5012887;28;96177;-71
2022/11/19 03:05:54;;;;;;;33.55;19.67;;;;;;;;;;5015009;28;94427;-72
2022/11/19 03:08:20;;;;;;;28.73;20.15;;;;;;;;;;5013640;28;92555;-71
2022/11/19 03:11:04;;;;;;;29.95;20.17;;;;;;;;;;5020262;28;92893;-71
2022/11/19 03:16:40;;;;;;;33.40;21.50;;;;;;;;;;5011914;28;94942;-72
2022/11/19 03:19:11;;;;;;;36.40;21.55;;;;;;;;;;5013706;28;97273;-72
2022/11/19 03:21:41;;;;;;;31.45;21.30;;;;;;;;;;5009795;28;93795;-72
2022/11/19 03:24:11;;;;;;;28.63;19.83;;;;;;;;;;5014398;28;92559;-70
2022/11/19 03:26:40;;;;;;;33.42;21.88;;;;;;;;;;4999722;28;93412;-71
2022/11/19 03:29:07;;;;;;;30.55;21.50;;;;;;;;;;5014725;28;92523;-71
2022/11/19 03:31:34;;;;;;;33.47;22.42;;;;;;;;;;5030987;27;93399;-71
2022/11/19 03:34:03;;;;;;;32.58;21.50;;;;;;;;;;5014132;28;93660;-71
2022/11/19 03:36:31;;;;;;;32.13;21.63;;;;;;;;;;5012939;28;92478;-72
2022/11/19 03:38:59;;;;;;;34.35;21.02;;;;;;;;;;5015211;28;92311;-71
2022/11/19 03:41:26;;;;;;;30.58;21.02;;;;;;;;;;5011304;28;97226;-69
2022/11/19 03:43:54;;;;;;;30.33;20.77;;;;;;;;;;5012870;28;92698;-72
2022/11/19 03:46:21;;;;;;;31.77;21.40;;;;;;;;;;5016465;28;94141;-72
2022/11/19 03:48:49;;;;;;;27.42;20.45;;;;;;;;;;5012852;28;92496;-72
2022/11/19 03:51:22;;;;;;;30.02;21.05;;;;;;;;;;5009914;28;93404;-71
2022/11/19 03:53:49;;;;;;;28.95;20.45;;;;;;;;;;5013488;28;93468;-71
2022/11/19 03:56:17;;;;;;;28.88;19.90;;;;;;;;;;5032966;28;92306;-72
2022/11/19 03:58:45;;;;;;;31.33;19.48;;;;;;;;;;5015102;28;94576;-72
2022/11/19 04:01:11;;;;;;;29.52;20.25;;;;;;;;;;5013492;28;93412;-72
2022/11/19 04:03:37;;;;;;;28.95;20.60;;;;;;;;;;5025951;27;93568;-72
2022/11/19 04:06:04;;;;;;;31.05;20.90;;;;;;;;;;5014472;27;96701;-71
2022/11/19 04:08:31;;;;;;;26.25;19.50;;;;;;;;;;5016546;28;93783;-71
2022/11/19 04:10:57;;;;;;;32.45;20.45;;;;;;;;;;5012065;28;93521;-72
2022/11/19 04:13:22;;;;;;;30.75;20.30;;;;;;;;;;5013415;28;93031;-70
2022/11/19 04:15:49;;;;;;;25.73;18.95;;;;;;;;;;5014528;28;92468;-71
2022/11/19 04:18:16;;;;;;;29.38;20.75;;;;;;;;;;5013614;28;94604;-72
2022/11/19 04:20:45;;;;;;;27.80;20.45;;;;;;;;;;5011239;28;93422;-70
2022/11/19 04:23:11;;;;;;;27.55;19.33;;;;;;;;;;5012207;28;91785;-71
2022/11/19 04:25:39;;;;;;;26.58;19.35;;;;;;;;;;5013657;28;92958;-71
2022/11/19 04:28:05;;;;;;;30.95;19.98;;;;;;;;;;5015863;28;93538;-71
2022/11/19 04:30:32;;;;;;;30.10;18.67;;;;;;;;;;5010755;28;94813;-72
2022/11/19 04:32:58;;;;;;;27.88;18.92;;;;;;;;;;5012840;28;93410;-71
2022/11/19 04:35:24;;;;;;;28.17;19.55;;;;;;;;;;5012834;28;92454;-71
2022/11/19 04:37:50;;;;;;;29.15;19.50;;;;;;;;;;5012035;28;93699;-70
2022/11/19 04:40:17;;;;;;;28.27;19.58;;;;;;;;;;5021908;28;93533;-72
2022/11/19 04:42:43;;;;;;;28.70;20.02;;;;;;;;;;5027955;27;92423;-72
2022/11/19 04:45:10;;;;;;;29.23;20.65;;;;;;;;;;5031556;27;94936;-72
2022/11/19 04:47:36;;;;;;;37.53;20.27;;;;;;;;;;5012998;28;92691;-71
2022/11/19 04:50:03;;;;;;;26.05;18.27;;;;;;;;;;5017773;28;92912;-71
2022/11/19 04:52:30;;;;;;;29.80;19.80;;;;;;;;;;5016901;28;94204;-72
2022/11/19 04:55:01;;;;;;;26.25;19.30;;;;;;;;;;5017910;28;94881;-71
2022/11/19 04:57:27;;;;;;;27.05;18.85;;;;;;;;;;5014356;28;95691;-72
2022/11/19 04:59:54;;;;;;;28.45;19.08;;;;;;;;;;5015736;28;94550;-71
2022/11/19 05:02:20;;;;;;;27.15;19.17;;;;;;;;;;5014526;28;92583;-71
2022/11/19 05:04:46;;;;;;;29.10;20.70;;;;;;;;;;5026802;28;92976;-71
2022/11/19 05:07:12;;;;;;;28.63;19.40;;;;;;;;;;5010568;28;93437;-72
2022/11/19 05:09:39;;;;;;;29.08;19.67;;;;;;;;;;5013461;28;92500;-71
2022/11/19 05:12:05;;;;;;;31.42;20.05;;;;;;;;;;5022944;28;93165;-71
2022/11/19 05:14:32;;;;;;;31.98;19.67;;;;;;;;;;5019727;27;92871;-72
2022/11/19 05:16:58;;;;;;;28.88;19.13;;;;;;;;;;5024701;27;93593;-71
2022/11/19 05:19:24;;;;;;;29.55;19.75;;;;;;;;;;5023867;28;96161;-72
2022/11/19 05:21:50;;;;;;;31.98;20.95;;;;;;;;;;5014935;28;94409;-71
2022/11/19 05:24:17;;;;;;;29.55;21.05;;;;;;;;;;5011212;28;93014;-71
2022/11/19 05:26:43;;;;;;;31.10;20.00;;;;;;;;;;5014926;28;93735;-71
2022/11/19 05:29:09;;;;;;;29.20;20.65;;;;;;;;;;5017183;28;92494;-71
2022/11/19 05:31:36;;;;;;;33.55;20.98;;;;;;;;;;5030825;28;94841;-70
2022/11/19 05:34:02;;;;;;;29.83;20.92;;;;;;;;;;5021630;28;94727;-71
2022/11/19 05:36:28;;;;;;;30.17;21.70;;;;;;;;;;5036127;28;93257;-71
2022/11/19 05:38:54;;;;;;;29.45;19.88;;;;;;;;;;5026094;27;93367;-71
2022/11/19 05:41:21;;;;;;;31.30;20.50;;;;;;;;;;5033407;28;92796;-71
2022/11/19 05:43:47;;;;;;;31.92;20.80;;;;;;;;;;5034344;27;94859;-71
2022/11/19 05:46:13;;;;;;;34.10;20.67;;;;;;;;;;5034207;28;94599;-71
2022/11/19 05:48:40;;;;;;;28.08;19.48;;;;;;;;;;5033816;28;92577;-71
2022/11/19 05:51:06;;;;;;;31.42;19.90;;;;;;;;;;5031220;27;93185;-70
2022/11/19 05:53:32;;;;;;;32.13;20.52;;;;;;;;;;5014979;28;93806;-71
2022/11/19 05:55:58;;;;;;;31.08;20.50;;;;;;;;;;5018827;28;92674;-71
2022/11/19 05:58:25;;;;;;;31.98;21.00;;;;;;;;;;5024805;28;93905;-72
2022/11/19 06:00:54;;;;;;;31.48;21.48;;;;;;;;;;5012268;28;92011;-71
2022/11/19 06:03:21;;;;;;;30.87;21.00;;;;;;;;;;5015212;28;92471;-72
2022/11/19 06:05:47;;;;;;;29.33;19.40;;;;;;;;;;5016301;28;93416;-71
2022/11/19 06:08:13;;;;;;;30.58;20.40;;;;;;;;;;5011482;28;94965;-70
2022/11/19 06:10:40;;;;;;;27.92;19.90;;;;;;;;;;5029402;27;95661;-71
2022/11/19 06:13:06;;;;;;;26.17;18.90;;;;;;;;;;5015050;28;93392;-71
2022/11/19 06:15:32;;;;;;;31.20;20.40;;;;;;;;;;5016315;28;92477;-71
2022/11/19 06:17:59;;;;;;;29.48;19.05;;;;;;;;;;5017923;28;94474;-71
2022/11/19 06:20:25;;;;;;;27.10;19.13;;;;;;;;;;5014666;28;92488;-72
2022/11/19 06:22:51;;;;;;;27.40;19.20;;;;;;;;;;5014470;28;93265;-71
2022/11/19 06:25:18;;;;;;;28.45;18.90;;;;;;;;;;5020322;27;92666;-71
2022/11/19 06:27:44;;;;;;;32.45;18.80;;;;;;;;;;5015394;28;92433;-70
2022/11/19 06:30:11;;;;;;;28.27;19.10;;;;;;;;;;5022258;27;93027;-71
2022/11/19 06:32:37;;;;;;;28.77;19.35;;;;;;;;;;5013988;28;96767;-70
2022/11/19 06:35:03;;;;;;;31.20;19.58;;;;;;;;;;5028109;28;93037;-71
2022/11/19 06:37:30;;;;;;;29.65;18.55;;;;;;;;;;5021340;28;93450;-72
2022/11/19 06:39:56;;;;;;;28.45;18.45;;;;;;;;;;5027794;27;92903;-71
2022/11/19 06:42:37;;;;;;;30.08;19.10;;;;;;;;;;5026818;27;93358;-72
2022/11/19 06:45:11;;;;;;;27.83;18.75;;;;;;;;;;5023404;27;94742;-71
2022/11/19 06:47:38;;;;;;;30.73;19.52;;;;;;;;;;5025132;28;93198;-71
2022/11/19 06:50:06;;;;;;;30.75;18.48;;;;;;;;;;5029804;27;93372;-72
2022/11/19 06:52:32;;;;;;;27.90;18.58;;;;;;;;;;5020213;27;94459;-71
2022/11/19 06:54:58;;;;;;;25.23;17.88;;;;;;;;;;5022230;28;92932;-70
2022/11/19 06:57:24;;;;;;;27.75;18.35;;;;;;;;;;5012817;28;94749;-70
2022/11/19 06:59:51;;;;;;;24.13;17.77;;;;;;;;;;5022670;28;93844;-71
2022/11/19 07:02:17;;;;;;;29.15;18.27;;;;;;;;;;5025522;28;94248;-71
2022/11/19 07:04:47;;;;;;;27.77;18.55;;;;;;;;;;5027881;28;93761;-69
2022/11/19 07:07:13;;;;;;;27.58;18.60;;;;;;;;;;5020472;28;93893;-72
2022/11/19 07:09:39;;;;;;;28.55;18.65;;;;;;;;;;5012594;28;94602;-71
2022/11/19 07:12:06;;;;;;;26.92;17.65;;;;;;;;;;5011913;28;93474;-71
2022/11/19 07:14:32;;;;;;;27.40;18.50;;;;;;;;;;5021403;28;92177;-72
2022/11/19 07:16:59;;;;;;;26.50;18.38;;;;;;;;;;5019584;27;94120;-71
2022/11/19 07:19:25;;;;;;;24.70;18.48;;;;;;;;;;5014122;28;93569;-72
2022/11/19 07:21:51;;;;;;;26.30;18.15;;;;;;;;;;5014736;28;95047;-71
2022/11/19 07:24:17;;;;;;;26.83;17.80;;;;;;;;;;5013796;28;95928;-72
2022/11/19 07:26:44;;;;;;;26.95;18.88;;;;;;;;;;5011478;28;92547;-71
2022/11/19 07:29:11;;;;;;;29.80;19.42;;;;;;;;;;5019364;28;93212;-72
2022/11/19 07:31:38;;;;;;;29.85;18.77;;;;;;;;;;5024121;27;93393;-71
2022/11/19 07:34:07;;;;;;;28.90;18.90;;;;;;;;;;5015181;28;92492;-71
2022/11/19 07:36:34;;;;;;;25.60;18.13;;;;;;;;;;5013644;28;93152;-72
2022/11/19 07:39:01;;;;;;;31.58;19.85;;;;;;;;;;5014655;28;93064;-71
2022/11/19 07:44:12;;;;;;;27.80;17.55;;;;;;;;;;5019609;28;93210;-72
2022/11/19 07:46:38;;;;;;;29.40;18.33;;;;;;;;;;5017418;27;94831;-71
2022/11/19 07:49:05;;;;;;;28.80;19.45;;;;;;;;;;5013141;28;96824;-71
2022/11/19 07:51:31;;;;;;;27.83;18.52;;;;;;;;;;5019227;27;94550;-70
2022/11/19 07:53:57;;;;;;;29.40;19.13;;;;;;;;;;5011227;28;92480;-70
2022/11/19 07:56:24;;;;;;;26.80;18.75;;;;;;;;;;5015008;28;94537;-70
2022/11/19 07:58:50;;;;;;;26.50;17.50;;;;;;;;;;5021588;27;93951;-69
2022/11/19 08:01:18;;;;;;;25.60;18.17;;;;;;;;;;5009194;28;92499;-69
2022/11/19 08:03:45;;;;;;;27.80;18.98;;;;;;;;;;5019699;28;92417;-69
2022/11/19 08:06:19;;;;;;;25.80;17.70;;;;;;;;;;5015916;27;93525;-70
2022/11/19 08:08:45;;;;;;;33.70;19.15;;;;;;;;;;5034470;27;93203;-68
2022/11/19 08:11:12;;;;;;;30.98;18.95;;;;;;;;;;5025161;27;95814;-70
2022/11/19 08:13:39;;;;;;;32.45;19.17;;;;;;;;;;5018137;27;92672;-71
2022/11/19 08:16:07;;;;;;;29.20;19.52;;;;;;;;;;5019637;28;93273;-72
2022/11/19 08:18:34;;;;;;;28.23;19.02;;;;;;;;;;5012788;28;93769;-72
2022/11/19 08:21:05;;;;;;;30.38;19.45;;;;;;;;;;5013849;28;92729;-71
2022/11/19 08:23:31;;;;;;;;;;;;;;;;;;5012271;28;93212;-70
2022/11/19 08:25:57;;;;;;;26.40;17.58;;;;;;;;;;5012083;28;124021;-70
2022/11/19 08:28:24;;;;;;;27.65;17.33;;;;;;;;;;5016368;28;91633;-69
2022/11/19 08:30:50;;;;;;;28.63;18.33;;;;;;;;;;5012593;28;93414;-70
2022/11/19 08:33:17;;;;;;;30.95;19.83;;;;;;;;;;5011309;28;92529;-69
2022/11/19 08:35:43;;;;;;;30.85;19.13;;;;;;;;;;5020396;28;94874;-69
2022/11/19 08:38:09;;;;;;;32.63;17.90;;;;;;;;;;5027692;28;94217;-69
2022/11/19 08:40:35;;;;;;;29.10;19.58;;;;;;;;;;5026043;28;93157;-69
2022/11/19 08:43:02;;;;;;;28.85;18.52;;;;;;;;;;5025505;28;93634;-70
2022/11/19 08:45:33;;;;;;;28.77;19.00;;;;;;;;;;5012690;28;93983;-72
2022/11/19 08:48:01;;;;;;;26.80;18.17;;;;;;;;;;5015841;28;92550;-72
2022/11/19 08:50:28;;;;;;;27.75;18.65;;;;;;;;;;5013106;28;94197;-71
2022/11/19 08:52:56;;;;;;;29.45;18.02;;;;;;;;;;5013663;28;91740;-71
2022/11/19 08:55:23;;;;;;;30.00;18.25;;;;;;;;;;5008024;28;93972;-68
2022/11/19 08:57:49;;;;;;;29.48;17.80;;;;;;;;;;5011029;28;93385;-68
2022/11/19 09:00:16;;;;;;;29.80;18.08;;;;;;;;;;5005633;28;96244;-69
2022/11/19 09:02:42;;;;;;;28.40;17.25;;;;;;;;;;5013232;28;96653;-70
2022/11/19 09:05:08;;;;;;;30.75;17.80;;;;;;;;;;5015627;28;94577;-70
2022/11/19 09:07:39;;;;;;;25.70;16.58;;;;;;;;;;5013236;28;92919;-70
2022/11/19 09:10:06;;;;;;;24.30;16.15;;;;;;;;;;5015600;28;93379;-70
2022/11/19 09:12:32;;;;;;;24.73;16.13;;;;;;;;;;5011879;28;92617;-69
2022/11/19 09:14:59;;;;;;;27.65;16.73;;;;;;;;;;5012016;28;93191;-68
2022/11/19 09:17:25;;;;;;;23.27;16.25;;;;;;;;;;5011184;28;93041;-69
2022/11/19 09:19:51;;;;;;;27.55;15.88;;;;;;;;;;5013431;28;92466;-68
2022/11/19 09:22:18;;;;;;;22.55;15.00;;;;;;;;;;5011932;28;94636;-69
2022/11/19 09:24:44;;;;;;;24.25;15.63;;;;;;;;;;5012042;28;95893;-69
2022/11/19 09:27:10;;;;;;;22.10;15.55;;;;;;;;;;5010556;28;92471;-69
2022/11/19 09:29:36;;;;;;;23.38;15.27;;;;;;;;;;5003280;28;94445;-69
2022/11/19 09:32:03;;;;;;;20.27;14.25;;;;;;;;;;5011764;28;93484;-68
2022/11/19 09:34:29;;;;;;;21.58;13.75;;;;;;;;;;5019087;28;93472;-69
2022/11/19 09:36:57;;;;;;;20.13;14.23;;;;;;;;;;5021773;27;94431;-69
2022/11/19 09:39:23;;;;;;;19.25;13.48;;;;;;;;;;5012084;28;92414;-69
2022/11/19 09:42:10;;;;;;;22.38;13.98;;;;;;;;;;5006817;28;94641;-67
2022/11/19 09:44:39;;;;;;;20.85;13.93;;;;;;;;;;4989412;28;93290;-69
2022/11/19 09:47:05;;;;;;;20.85;13.55;;;;;;;;;;5010948;28;92431;-68
2022/11/19 09:49:42;;;;;;;20.27;13.32;;;;;;;;;;5013519;28;94860;-66
2022/11/19 09:52:13;;;;;;;19.88;13.70;;;;;;;;;;5011041;28;93768;-69
2022/11/19 09:54:43;;;;;;;19.80;12.27;;;;;;;;;;5015073;28;92354;-68
2022/11/19 09:57:12;;;;;;;17.92;12.35;;;;;;;;;;5025957;28;93458;-68
2022/11/19 09:59:39;;;;;;;18.90;12.50;;;;;;;;;;5023239;27;92436;-68
2022/11/19 10:02:14;;;;;;;16.10;11.85;;;;;;;;;;5015100;28;94127;-68
2022/11/19 10:04:40;;;;;;;16.63;12.40;;;;;;;;;;4995799;28;93492;-67
2022/11/19 10:07:22;;;;;;;17.92;12.13;;;;;;;;;;4994864;28;91736;-69
2022/11/19 10:10:06;;;;;;;16.13;11.75;;;;;;;;;;4996434;28;94090;-68
2022/11/19 10:13:10;;;;;;;19.30;12.48;;;;;;;;;;5012005;28;93846;-69
2022/11/19 10:15:47;;;;;;;21.83;11.70;;;;;;;;;;5003765;28;94853;-68
2022/11/19 10:18:13;;;;;;;16.08;11.63;;;;;;;;;;5018448;28;95602;-67
2022/11/19 10:20:54;;;;;;;15.00;11.45;;;;;;;;;;5013332;28;94567;-68
2022/11/19 10:23:26;;;;;;;14.48;10.85;;;;;;;;;;5010045;28;93141;-68
2022/11/19 10:25:57;;;;;;;16.05;11.20;;;;;;;;;;5013254;28;93347;-68
2022/11/19 10:28:26;;;;;;;14.68;11.13;;;;;;;;;;5014902;28;92498;-68
2022/11/19 10:30:54;;;;;;;15.27;10.40;;;;;;;;;;5031741;28;93396;-69
2022/11/19 10:33:24;;;;;;;14.25;9.73;;;;;;;;;;5035372;28;93706;-68
2022/11/19 10:35:54;;;;;;;11.70;9.82;;;;;;;;;;5036545;27;92448;-68
2022/11/19 10:38:23;;;;;;;12.73;9.48;;;;;;;;;;5022279;27;96591;-70
2022/11/19 10:40:52;;;;;;;11.00;9.27;;;;;;;;;;5013267;28;94827;-69
2022/11/19 10:43:34;;;;;;;12.32;9.48;;;;;;;;;;5016145;28;95679;-70
2022/11/19 10:46:02;;;;;;;12.48;10.30;;;;;;;;;;5014904;28;93454;-70
2022/11/19 10:48:36;;;;;;;12.68;9.60;;;;;;;;;;5014188;28;92643;-71
2022/11/19 10:51:08;;;;;;;12.73;10.40;;;;;;;;;;5015610;28;94215;-70
2022/11/19 10:53:36;;;;;;;12.77;9.70;;;;;;;;;;5014977;28;93981;-70
2022/11/19 10:56:12;;;;;;;10.48;8.68;;;;;;;;;;5014951;28;94369;-69
2022/11/19 10:58:45;;;;;;;10.30;8.88;;;;;;;;;;5037087;27;93146;-70
2022/11/19 11:01:14;;;;;;;12.98;8.95;;;;;;;;;;5022127;27;93646;-69
2022/11/19 11:03:46;;;;;;;9.27;8.30;;;;;;;;;;5014262;28;94010;-70
2022/11/19 11:06:13;;;;;;;9.40;8.40;;;;;;;;;;5014872;28;96257;-68
2022/11/19 11:08:49;;;;;;;9.35;8.30;;;;;;;;;;5028233;27;92451;-72
2022/11/19 11:17:20;;;;;;;9.40;8.45;;;;;;;;;;5033557;28;92473;-69
2022/11/19 11:20:00;;;;;;;10.32;8.40;;;;;;;;;;5029178;27;93008;-70
2022/11/19 11:22:27;;;;;;;10.05;9.05;;;;;;;;;;5015288;28;93464;-70
2022/11/19 11:24:53;;;;;;;9.18;8.30;;;;;;;;;;5017786;28;91731;-71
2022/11/19 11:27:21;;;;;;;9.40;7.90;;;;;;;;;;5014004;28;93851;-70
2022/11/19 11:29:47;;;;;;;9.43;8.27;;;;;;;;;;5015678;28;92441;-72
2022/11/19 11:32:25;;;;;;;8.23;7.43;;;;;;;;;;5013874;28;94898;-70
2022/11/19 11:34:52;;;;;;;8.93;8.00;;;;;;;;;;5012617;28;93736;-70
2022/11/19 11:37:18;;;;;;;9.20;8.00;;;;;;;;;;5011948;28;92781;-70
2022/11/19 11:39:47;;;;;;;8.25;7.45;;;;;;;;;;5012018;28;92986;-70
2022/11/19 11:42:18;;;;;;;9.73;8.00;;;;;;;;;;5014619;28;94482;-72
2022/11/19 11:44:55;;;;;;;10.35;7.70;;;;;;;;;;5013734;28;93386;-72
2022/11/19 11:47:24;;;;;;;9.20;7.68;;;;;;;;;;5017588;28;96569;-71
2022/11/19 11:50:03;;;;;;;8.90;8.00;;;;;;;;;;5013468;28;91719;-70
2022/11/19 11:52:56;;;;;;;9.68;8.00;;;;;;;;;;5012836;28;92520;-70
2022/11/19 11:55:22;;;;;;;9.80;8.50;;;;;;;;;;5012504;28;94060;-70
2022/11/19 11:57:52;;;;;;;10.23;8.57;;;;;;;;;;5009391;28;96069;-70
2022/11/19 12:00:33;;;;;;;8.45;7.63;;;;;;;;;;5015068;28;96636;-70
2022/11/19 12:02:59;;;;;;;9.90;8.80;;;;;;;;;;5012756;28;94466;-70
2022/11/19 12:05:27;;;;;;;11.15;9.07;;;;;;;;;;5030838;28;92652;-71
2022/11/19 12:08:00;;;;;;;10.75;9.57;;;;;;;;;;5020172;27;93450;-71
2022/11/19 12:10:45;;;;;;;9.55;8.63;;;;;;;;;;5030120;27;93818;-70
2022/11/19 12:13:25;;;;;;;7.90;7.10;;;;;;;;;;5000398;28;93185;-71
2022/11/19 12:15:51;;;;;;;7.63;6.75;;;;;;;;;;5019692;28;92760;-70
2022/11/19 12:18:23;;;;;;;12.43;6.50;;;;;;;;;;5012721;27;92972;-70
2022/11/19 12:20:54;;;;;;;10.23;7.43;;;;;;;;;;5007223;28;93449;-70
2022/11/19 12:23:39;;;;;;;7.97;7.13;;;;;;;;;;5011912;28;96891;-71
2022/11/19 12:26:11;;;;;;;7.38;6.68;;;;;;;;;;5035071;27;92435;-71
2022/11/19 12:28:50;;;;;;;8.02;7.20;;;;;;;;;;5015618;27;93791;-69
2022/11/19 12:31:25;;;;;;;9.05;7.35;;;;;;;;;;5013678;28;93251;-71
2022/11/19 12:34:13;;;;;;;7.50;6.80;;;;;;;;;;5017954;28;92537;-69
2022/11/19 12:36:49;;;;;;;7.45;6.75;;;;;;;;;;5005457;28;93763;-70
2022/11/19 12:39:25;;;;;;;6.80;6.20;;;;;;;;;;5012962;28;92557;-71
2022/11/19 12:42:10;;;;;;;8.10;6.20;;;;;;;;;;5013609;28;93195;-66
2022/11/19 12:44:42;;;;;;;7.00;6.20;;;;;;;;;;5013317;28;94021;-66
2022/11/19 12:47:08;;;;;;;7.25;6.50;;;;;;;;;;5014168;28;92494;-66
2022/11/19 12:49:43;;;;;;;6.45;5.82;;;;;;;;;;5011537;28;94938;-67
2022/11/19 12:52:34;;;;;;;7.43;6.25;;;;;;;;;;5018808;28;93473;-68
2022/11/19 12:55:00;;;;;;;6.70;5.88;;;;;;;;;;5038185;27;92397;-66
2022/11/19 12:57:33;;;;;;;7.75;6.72;;;;;;;;;;5030579;27;94759;-66
2022/11/19 13:00:18;;;;;;;6.72;5.97;;;;;;;;;;5027320;27;92880;-66
2022/11/19 13:03:02;;;;;;;15.50;6.78;;;;;;;;;;5014220;28;94139;-65
2022/11/19 13:05:36;;;;;;;7.93;6.82;;;;;;;;;;5013850;28;93396;-66
2022/11/19 13:08:12;;;;;;;8.15;6.78;;;;;;;;;;5012102;28;91757;-67
2022/11/19 13:10:41;;;;;;;8.10;6.88;;;;;;;;;;5014370;28;92376;-67
2022/11/19 13:13:10;;;;;;;10.98;7.55;;;;;;;;;;5011898;28;94179;-67
2022/11/19 13:15:38;;;;;;;7.75;6.72;;;;;;;;;;5010389;28;94954;-66
2022/11/19 13:18:09;;;;;;;8.20;6.05;;;;;;;;;;5016398;28;95847;-68
2022/11/19 13:20:44;;;;;;;10.07;6.03;;;;;;;;;;5012185;28;92622;-67
2022/11/19 13:23:14;;;;;;;7.30;6.28;;;;;;;;;;5014343;28;93253;-67
2022/11/19 13:25:45;;;;;;;7.10;6.13;;;;;;;;;;5012558;28;93953;-67
2022/11/19 13:28:23;;;;;;;7.10;6.07;;;;;;;;;;4998388;28;92746;-67
2022/11/19 13:30:51;;;;;;;11.73;6.28;;;;;;;;;;5013763;28;94223;-67
2022/11/19 13:33:23;;;;;;;39.38;6.65;;;;;;;;;;5014290;28;93186;-67
2022/11/19 13:36:02;;;;;;;8.73;5.97;;;;;;;;;;5013253;28;92537;-67
2022/11/19 13:38:42;;;;;;;8.25;5.70;;;;;;;;;;5027440;28;93648;-67
2022/11/19 13:41:14;;;;;;;6.82;5.43;;;;;;;;;;5024519;27;95758;-66
2022/11/19 13:46:30;;;;;;;7.45;5.85;;;;;;;;;;5013351;28;93721;-67
2022/11/19 13:49:02;;;;;;;5.10;4.60;;;;;;;;;;5016147;28;93235;-66
2022/11/19 13:51:29;;;;;;;7.45;4.93;;;;;;;;;;5018679;28;93347;-66
2022/11/19 13:53:56;;;;;;;5.60;5.10;;;;;;;;;;5031991;28;94047;-67
2022/11/19 13:56:42;;;;;;;7.13;5.10;;;;;;;;;;5027193;28;92528;-67
2022/11/19 13:59:23;;;;;;;6.57;5.47;;;;;;;;;;5037912;27;93206;-67
2022/11/19 14:01:54;;;;;;;5.38;4.88;;;;;;;;;;4997258;28;93214;-67
2022/11/19 14:04:45;;;;;;;9.25;5.85;;;;;;;;;;5023218;28;93010;-67
2022/11/19 14:07:11;;;;;;;;;;;;;;;;;;5021735;28;96311;-67
2022/11/19 14:09:38;;;;;;;6.70;5.13;;;;;;;;;;5016213;28;119105;-67
2022/11/19 14:12:14;;;;;;;5.78;4.95;;;;;;;;;;5015695;28;93432;-67
2022/11/19 14:26:39;;;;;;;6.43;4.97;;;;;;;;;;5034851;28;91843;-66
2022/11/19 14:29:25;;;;;;;6.03;4.75;;;;;;;;;;5039961;28;95610;-66
2022/11/19 14:32:07;;;;;;;6.93;5.57;;;;;;;;;;5024371;28;92568;-66
2022/11/19 14:34:34;;;;;;;6.70;5.00;;;;;;;;;;5021989;28;94961;-66
2022/11/19 14:37:24;;;;;;;12.07;5.13;;;;;;;;;;5017012;28;93581;-67
2022/11/19 14:40:00;;;;;;;11.63;4.68;;;;;;;;;;5024812;27;92490;-66
2022/11/19 14:42:26;;;;;;;7.18;5.60;;;;;;;;;;5015371;27;93095;-66
2022/11/19 14:44:58;;;;;;;8.05;5.82;;;;;;;;;;5016024;28;93611;-67
2022/11/19 14:47:25;;;;;;;7.90;5.57;;;;;;;;;;5030191;28;92650;-66
2022/11/19 14:49:59;;;;;;;9.40;5.53;;;;;;;;;;5021412;28;93379;-66
2022/11/19 14:52:28;;;;;;;9.50;6.25;;;;;;;;;;5034861;28;92907;-65
2022/11/19 14:54:55;;;;;;;8.23;5.57;;;;;;;;;;5023709;27;92763;-65
2022/11/19 14:57:26;;;;;;;6.60;5.55;;;;;;;;;;5034098;27;93553;-65
2022/11/19 14:59:57;;;;;;;6.22;4.90;;;;;;;;;;5029651;27;94893;-65
2022/11/19 15:02:44;;;;;;;10.90;5.28;;;;;;;;;;5015950;28;95828;-66
2022/11/19 15:05:11;;;;;;;7.18;5.22;;;;;;;;;;5012259;28;93620;-65
2022/11/19 15:07:39;;;;;;;10.60;5.10;;;;;;;;;;5014407;28;92997;-66
2022/11/19 15:10:21;;;;;;;6.43;5.00;;;;;;;;;;5012052;28;93270;-64
2022/11/19 15:12:49;;;;;;;8.93;5.68;;;;;;;;;;5011503;28;93922;-67
2022/11/19 15:15:18;;;;;;;7.75;5.13;;;;;;;;;;5014048;28;93135;-65